• Join FlightAware (Why Join?)
  • Login
  • US Flag 
04:12AM EDT


 

Airport Tracker/Info


-or-


 

Live Flight TrackerFlight Track Log ✈ JBU1741 ✈ 17-Apr-2013 ✈ TJSJ / SJU - MDSD / SDQ

Flight Track Log - Related Links

Times and Time Zones

All times are in EDT time to prevent confusion due to time zone crossing. See the JBU1741 flight status page for this flight to view local times or setup timezone preferences in your user account.

Time Position Orientation Groundspeed Altitude Reporting Facility
EDT Latitude Longitude Course Direction KTS MPH feet Rate Location/Type
10:35AM 18.4333 -65.9667 276° West 160 184 1,600  Level San Juan Center
10:36AM 18.4667 -65.9667 360° North 250 288 3,600 2,520 Climbing San Juan Center
10:37AM 18.5333 -66.0000 335° Northwest 250 288 6,800 2,940 Climbing San Juan Center
10:38AM 18.4500 -66.3832 270° West  Level FlightAware Approximate
10:38AM 18.5500 -66.0833 282° West 300 345 9,500  Level San Juan Center
10:39AM 18.4546 -66.4792 276° West  Level FlightAware Approximate
10:39AM 18.5500 -66.1667 270° West 330 380 10,000  Level San Juan Center
10:40AM 18.4642 -66.5749 276° West  Level FlightAware Approximate
10:40AM 18.5333 -66.2667 260° West 370 426 10,000  Level San Juan Center
10:41AM 18.5333 -66.3833 270° West 370 426 12,200 2,340 Climbing San Juan Center
10:42AM 18.5333 -66.4833 270° West 370 426 14,800 2,400 Climbing San Juan Center
10:43AM 18.5167 -66.6000 261° West 380 437 17,100 2,220 Climbing San Juan Center
10:44AM 18.5167 -66.7167 270° West 400 460 19,300 2,100 Climbing San Juan Center
10:45AM 18.5000 -66.8167 260° West 400 460 21,300 1,620 Climbing San Juan Center
10:46AM 18.5000 -66.9333 270° West 410 472 22,600 1,320 Climbing San Juan Center
10:47AM 18.4833 -67.0667 263° West 430 495 24,000 660 Climbing San Juan Center
10:48AM 18.4833 -67.1833 270° West 440 506 24,000  Level San Juan Center
10:49AM 18.4833 -67.3167 270° West 430 495 24,000  Level San Juan Center
10:50AM 18.4833 -67.4500 270° West 430 495 24,000  Level San Juan Center
10:51AM 18.4833 -67.5667 270° West 430 495 24,000  Level San Juan Center
10:52AM 18.4667 -67.7000 263° West 440 506 24,000  Level San Juan Center
10:53AM 18.4667 -67.8167 270° West 430 495 24,000  Level San Juan Center
10:54AM 18.4667 -67.9500 270° West 430 495 24,000  Level San Juan Center
10:56AM 18.4667 -68.0896 270° West  Level FlightAware Approximate
11:03AM 18.4520 -68.7632 268° West  Level FlightAware Approximate
11:04AM 18.4500 -68.8594 270° West  Level FlightAware Approximate
11:05AM 18.4500 -68.9556 270° West  Level FlightAware Approximate
11:06AM 18.4460 -69.0517 265° West  Level FlightAware Approximate
11:07AM 18.4387 -69.1477 265° West  Level FlightAware Approximate
11:08AM 18.4333 -69.2437 270° West  Level FlightAware Approximate
11:09AM 18.4333 -69.3399 270° West  Level FlightAware Approximate
11:10AM 18.4333 -69.4362 270° West  Level FlightAware Approximate
11:11AM 18.4333 -69.5324 270° West  Level FlightAware Approximate
11:12AM 18.4212 -69.6273 258° West  Level FlightAware Approximate
11:13AM 18.4167 -69.6500 258° West  Level FlightAware Approximate
11:14AM 18.4297 -69.6689 258° West  Level Estimated
11:15AM 18.4297 -69.6689 258° West  Level Estimated
11:16AM 18.4297 -69.6689 258° West  Level Estimated
11:17AM 18.4297 -69.6689 258° West  Level Estimated